GOOY/DKR METAR and TAF weather

Enter ICAO airport designator
Station Type Date Time Source
GOOY METAR 2021/08/04 18:00 UTC NOAA

GOOY 041800Z 22006KT 9999 SCT015 SCT020 30/25 Q1013


Station Type Date Time Source
GOOY Decoded METAR 2021/08/04 18:00 UTC NOAA

Dakar / Yoff, Senegal (GOOY) 14-44N 017-30W 24M
Aug 04, 2021 - 02:00 PM EDT / 2021.08.04 1800 UTC
Wind: from the SW (220 degrees) at 7 MPH (6 KT):0
Visibility: greater than 7 mile(s):0
Sky conditions: partly cloudy
Temperature: 86 F (30 C)
Heat index: 96.8 F (36.0 C):1
Dew Point: 77 F (25 C)
Relative Humidity: 74%
Pressure (altimeter): 29.91 in. Hg (1013 hPa)
ob: GOOY 041800Z 22006KT 9999 SCT015 SCT020 30/25 Q1013
cycle: 18

Station Type Date Time Source
GOOY TAF 2021/08/04 18:30 UTC NOAA

TAF GOOY 041700Z 0418/0524 28006KT 9999 SCT013

Example: see airport list